Madeira — 9HAA9 — position and weather

sailwx.info

Track history (hours):
 
Tides and Currents Weather Stations Pressure Air Temp Water Temp Dewpoint Dewpoint Depression Visibility Wind Speed Wind Dir Waves Ship Positions

Madeira

Last reported at 2017-Sep-18 20:27 UTC. Time now 2017-Sep-19 18:37 UTC.
Position N 36°58' W 076°25'.

Length 292 m; draft 10.4 m.

Type: Cargo ship. MMSI: 256668000.

Date/timePositionNaut miles runAvg speedWind from/ knotsBaromVisibWave heightAir tempDewpointWater temp
2017-Sep-18 20:27N 36°58' W 076°25'3 5.0
2017-Sep-18 19:55N 36°57' W 076°22'4 9.4
2017-Sep-18 19:29N 36°60' W 076°18'611.7
2017-Sep-18 18:58N 36°59' W 076°11'511.7
2017-Sep-18 18:31N 36°58' W 076°04'3 6.1
2017-Sep-18 18:00N 36°60' W 076°01'68 3.0
2017-Sep-17 19:00N 38°07' W 076°14'4113.1
2017-Sep-17 15:52N 38°47' W 076°25'513.9
2017-Sep-17 15:30N 38°52' W 076°24'914.1
2017-Sep-17 14:52N 39°01' W 076°23'513.4
2017-Sep-17 14:29N 39°06' W 076°24'612.0
2017-Sep-17 14:00N 39°11' W 076°28'510.4
2017-Sep-17 13:30N 39°14' W 076°33'1 2.7
2017-Sep-17 12:58N 39°15' W 076°34'0 0.0
2017-Sep-17 12:28N 39°15' W 076°34'0 0.0
2017-Sep-17 11:58N 39°15' W 076°34'0 0.0
2017-Sep-17 11:28N 39°15' W 076°34'0 0.0
2017-Sep-17 10:59N 39°15' W 076°34'0 0.0
2017-Sep-17 10:28N 39°15' W 076°34'0 0.0
2017-Sep-17 09:58N 39°15' W 076°34'0 0.0
2017-Sep-17 09:28N 39°15' W 076°34'0 0.0
2017-Sep-17 08:58N 39°15' W 076°34'0 0.0
2017-Sep-17 08:28N 39°15' W 076°34'0 0.0
2017-Sep-17 07:58N 39°15' W 076°34'0 0.0
2017-Sep-17 07:28N 39°15' W 076°34'0 0.0
2017-Sep-17 06:58N 39°15' W 076°34'0 0.0
2017-Sep-17 06:28N 39°15' W 076°34'0 0.0
2017-Sep-17 05:58N 39°15' W 076°34'0 0.0
2017-Sep-17 05:28N 39°15' W 076°34'0 0.0
2017-Sep-17 04:58N 39°15' W 076°34'0 0.0
2017-Sep-17 04:28N 39°15' W 076°34'0 0.0
2017-Sep-17 03:58N 39°15' W 076°34'0 0.0
2017-Sep-17 03:28N 39°15' W 076°34'0 0.0
2017-Sep-17 02:58N 39°15' W 076°34'0 0.0
2017-Sep-17 02:28N 39°15' W 076°34'0 0.0
2017-Sep-17 01:58N 39°15' W 076°34'0 0.0
2017-Sep-17 01:28N 39°15' W 076°34'0 0.0
2017-Sep-17 00:58N 39°15' W 076°34'0 0.0
2017-Sep-17 00:28N 39°15' W 076°34'0 0.0
2017-Sep-16 23:58N 39°15' W 076°34'0 0.0
2017-Sep-16 23:28N 39°15' W 076°34'0 0.0
2017-Sep-16 22:58N 39°15' W 076°34'0 0.0
2017-Sep-16 22:28N 39°15' W 076°34'0 0.0
2017-Sep-16 21:58N 39°15' W 076°34'0 0.0
2017-Sep-16 21:28N 39°15' W 076°34'0 0.0
2017-Sep-16 20:58N 39°15' W 076°34'0 0.0
2017-Sep-16 20:28N 39°15' W 076°34'0 0.0
2017-Sep-16 19:58N 39°15' W 076°34'0 0.0
2017-Sep-16 19:28N 39°15' W 076°34'0 0.0
2017-Sep-16 18:58N 39°15' W 076°34'0 0.0
2017-Sep-16 18:28N 39°15' W 076°34'0 0.0
2017-Sep-16 17:58N 39°15' W 076°34'0 0.0
2017-Sep-16 17:28N 39°15' W 076°34'0 0.0
2017-Sep-16 16:58N 39°15' W 076°34'0 0.0
2017-Sep-16 16:28N 39°15' W 076°34'0 0.0
2017-Sep-16 15:58N 39°15' W 076°34'0 0.0
2017-Sep-16 15:28N 39°15' W 076°34'0 0.0
2017-Sep-16 14:58N 39°15' W 076°34'0 0.0
2017-Sep-16 14:28N 39°15' W 076°34'0 0.0
2017-Sep-16 13:58N 39°15' W 076°34'0 0.6
2017-Sep-16 13:31N 39°15' W 076°34'3 5.5
2017-Sep-16 13:01N 39°13' W 076°32'5 9.2
2017-Sep-16 12:30N 39°11' W 076°26'611.3
2017-Sep-16 12:01N 39°06' W 076°24'4 8.8
2017-Sep-16 11:30N 39°01' W 076°23'4 9.0
2017-Sep-16 11:00N 38°57' W 076°24'4 7.5
2017-Sep-16 10:31N 38°53' W 076°24'0 0.2
2017-Sep-16 09:58N 38°53' W 076°24'0 0.3
2017-Sep-16 09:28N 38°53' W 076°24'0 0.1
2017-Sep-16 08:55N 38°53' W 076°24'0 0.0
2017-Sep-16 08:28N 38°53' W 076°24'0 0.0
2017-Sep-16 07:58N 38°53' W 076°24'0 0.0
2017-Sep-16 07:25N 38°53' W 076°24'0 0.0
2017-Sep-16 06:58N 38°53' W 076°24'0 0.0
2017-Sep-16 06:22N 38°53' W 076°24'0 0.0
2017-Sep-16 05:58N 38°53' W 076°24'0 0.0
2017-Sep-16 05:28N 38°53' W 076°24'0 0.0
2017-Sep-16 04:46N 38°53' W 076°24'0 0.1
2017-Sep-16 04:28N 38°53' W 076°24'0 0.4
2017-Sep-16 03:55N 38°53' W 076°24'0 0.2
2017-Sep-16 03:28N 38°53' W 076°24'0 0.1
2017-Sep-16 02:58N 38°53' W 076°24'0 0.0
2017-Sep-16 02:28N 38°53' W 076°24'0 0.0
2017-Sep-16 01:58N 38°53' W 076°24'0 0.0
2017-Sep-16 01:28N 38°53' W 076°24'0 0.0
2017-Sep-16 00:58N 38°53' W 076°24'0 0.0
2017-Sep-16 00:28N 38°53' W 076°24'0 0.0
2017-Sep-15 23:58N 38°53' W 076°24'0 0.0
2017-Sep-15 23:28N 38°53' W 076°24'0 0.0
2017-Sep-15 22:58N 38°53' W 076°24'0 0.0
2017-Sep-15 22:28N 38°53' W 076°24'0 0.1
2017-Sep-15 21:58N 38°53' W 076°25'0 0.4
2017-Sep-15 21:28N 38°53' W 076°25'0 0.2
2017-Sep-15 20:55N 38°53' W 076°24'0 0.0
2017-Sep-15 20:25N 38°53' W 076°24'0 0.0
2017-Sep-15 19:55N 38°53' W 076°24'0 0.0
2017-Sep-15 19:07N 38°53' W 076°24'0 0.1
2017-Sep-15 16:58N 38°53' W 076°24'0 0.3
2017-Sep-15 16:28N 38°53' W 076°24'0 0.1
2017-Sep-15 15:58N 38°53' W 076°24'0 0.1
2017-Sep-15 15:25N 38°53' W 076°24'0 0.0
2017-Sep-15 14:58N 38°53' W 076°25'0 0.0
2017-Sep-15 14:25N 38°53' W 076°25'0 0.0
2017-Sep-15 13:58N 38°53' W 076°25'0 0.0
2017-Sep-15 13:28N 38°53' W 076°25'0 0.0
2017-Sep-15 12:58N 38°53' W 076°25'0 0.0
2017-Sep-15 12:28N 38°53' W 076°24'0 0.0
2017-Sep-15 11:58N 38°53' W 076°25'0 0.0
2017-Sep-15 11:28N 38°53' W 076°24'0 0.0
2017-Sep-15 10:58N 38°53' W 076°24'0 0.0
2017-Sep-15 10:28N 38°53' W 076°24'0 0.0
2017-Sep-15 09:58N 38°53' W 076°24'0 0.1
2017-Sep-15 09:28N 38°53' W 076°24'0 0.2
2017-Sep-15 08:58N 38°53' W 076°24'0 0.3
2017-Sep-15 08:28N 38°53' W 076°24'0 0.1
2017-Sep-15 07:58N 38°53' W 076°24'0 0.1
2017-Sep-15 07:28N 38°53' W 076°24'0 0.0
2017-Sep-15 06:58N 38°53' W 076°24'0 0.0
2017-Sep-15 06:28N 38°53' W 076°24'0 0.0
2017-Sep-15 05:58N 38°53' W 076°24'0 0.0
2017-Sep-15 05:28N 38°53' W 076°24'0 0.0
2017-Sep-15 04:55N 38°53' W 076°24'0 0.0
2017-Sep-15 04:28N 38°53' W 076°24'0 0.0
2017-Sep-15 03:58N 38°53' W 076°24'0 0.0
2017-Sep-15 03:25N 38°53' W 076°24'0 0.1
2017-Sep-15 02:31N 38°53' W 076°24'0 0.4
2017-Sep-15 02:28N 38°53' W 076°24'0 0.3
2017-Sep-15 01:58N 38°53' W 076°24'0 0.1
2017-Sep-15 01:28N 38°53' W 076°24'0 0.0
2017-Sep-15 00:58N 38°53' W 076°24'0 0.0
2017-Sep-15 00:25N 38°53' W 076°24'0 0.0
2017-Sep-14 23:58N 38°53' W 076°24'0 0.1
2017-Sep-14 23:25N 38°53' W 076°24'0 0.0
2017-Sep-14 22:58N 38°53' W 076°24'0 0.0
2017-Sep-14 22:28N 38°53' W 076°24'0 0.1
2017-Sep-14 21:58N 38°53' W 076°24'0 0.0
2017-Sep-14 21:28N 38°53' W 076°25'0 0.1
2017-Sep-14 20:52N 38°53' W 076°25'0 0.2
2017-Sep-14 20:28N 38°53' W 076°25'0 0.1
2017-Sep-14 19:58N 38°53' W 076°25'0 0.1
2017-Sep-14 19:28N 38°53' W 076°25'0 0.1
2017-Sep-14 18:46N 38°53' W 076°24'0 0.1
2017-Sep-14 18:28N 38°53' W 076°24'0 0.0
2017-Sep-14 16:34N 38°53' W 076°24'0 0.1
2017-Sep-14 16:28N 38°53' W 076°24'0 0.0
2017-Sep-14 14:22N 38°53' W 076°24'0 0.1
2017-Sep-14 13:55N 38°53' W 076°24'0 0.2
2017-Sep-14 13:28N 38°53' W 076°24'0 0.2
2017-Sep-14 12:58N 38°53' W 076°24'0 0.1
2017-Sep-14 12:25N 38°53' W 076°24'0 0.1
2017-Sep-14 11:58N 38°53' W 076°24'0 0.0
2017-Sep-14 11:28N 38°53' W 076°24'0 0.0
2017-Sep-14 10:52N 38°53' W 076°24'0 0.1
2017-Sep-14 10:19N 38°53' W 076°24'0 0.2
2017-Sep-14 09:58N 38°53' W 076°24'0 0.1
2017-Sep-14 09:28N 38°53' W 076°24'0 0.2
2017-Sep-14 08:58N 38°53' W 076°24'0 0.2
2017-Sep-14 08:16N 38°53' W 076°24'0 0.1
2017-Sep-14 07:58N 38°53' W 076°24'0 0.0
2017-Sep-14 07:28N 38°53' W 076°24'0 0.0
2017-Sep-14 06:55N 38°53' W 076°24'0 0.0
2017-Sep-14 06:28N 38°53' W 076°24'0 0.0
2017-Sep-14 05:58N 38°53' W 076°24'0 0.0
2017-Sep-14 05:28N 38°53' W 076°24'0 0.0
2017-Sep-14 04:55N 38°53' W 076°24'0 0.0
2017-Sep-14 04:28N 38°53' W 076°24'0 0.0
2017-Sep-14 03:58N 38°53' W 076°24'0 0.0
2017-Sep-14 03:25N 38°53' W 076°24'0 0.0
2017-Sep-14 02:58N 38°53' W 076°24'0 0.0
2017-Sep-14 02:28N 38°53' W 076°24'0 0.1
2017-Sep-14 01:58N 38°53' W 076°24'0 0.2
2017-Sep-14 01:28N 38°53' W 076°25'0 0.4
2017-Sep-14 00:58N 38°53' W 076°25'0 0.1
2017-Sep-14 00:28N 38°53' W 076°24'0 0.0
2017-Sep-13 23:58N 38°53' W 076°24'0 0.0
2017-Sep-13 23:28N 38°53' W 076°24'0 0.0
2017-Sep-13 22:58N 38°53' W 076°24'0 0.0
2017-Sep-13 22:25N 38°53' W 076°24'0 0.0
2017-Sep-13 21:58N 38°53' W 076°24'0 0.0
2017-Sep-13 21:28N 38°53' W 076°24'0 0.0
2017-Sep-13 20:55N 38°53' W 076°24'0 0.0
2017-Sep-13 20:28N 38°53' W 076°24'0 0.0
2017-Sep-13 19:43N 38°53' W 076°25'0 0.2
2017-Sep-13 19:13N 38°53' W 076°25'0 0.2
2017-Sep-13 18:10N 38°53' W 076°24'0 0.1
2017-Sep-13 17:58N 38°53' W 076°24'0 0.0
2017-Sep-13 16:37N 38°53' W 076°24'0 0.0
2017-Sep-13 16:16N 38°53' W 076°24'0 0.0
2017-Sep-13 14:28N 38°53' W 076°24'0 0.0
2017-Sep-13 13:58N 38°53' W 076°24'0 0.1
2017-Sep-13 13:13N 38°53' W 076°24'0 0.2
2017-Sep-13 12:58N 38°53' W 076°25'0 0.3
2017-Sep-13 12:28N 38°53' W 076°25'0 0.2
2017-Sep-13 11:58N 38°53' W 076°25'0 0.1
2017-Sep-13 11:28N 38°53' W 076°24'0 0.0
2017-Sep-13 10:55N 38°53' W 076°24'0 0.0
2017-Sep-13 10:28N 38°53' W 076°24'0 0.0
2017-Sep-13 09:58N 38°53' W 076°24'0 0.0
2017-Sep-13 09:28N 38°53' W 076°24'0 0.0
2017-Sep-13 08:58N 38°53' W 076°24'0 0.1
2017-Sep-13 08:28N 38°53' W 076°25'0 0.0
2017-Sep-13 07:58N 38°53' W 076°25'0 0.0
2017-Sep-13 07:28N 38°53' W 076°25'0 0.2
2017-Sep-13 06:58N 38°53' W 076°25'0 0.3
2017-Sep-13 06:28N 38°53' W 076°25'0 0.1
2017-Sep-13 05:58N 38°53' W 076°24'0 0.0
2017-Sep-13 05:28N 38°53' W 076°24'0 0.0
2017-Sep-13 04:58N 38°53' W 076°24'0 0.0
2017-Sep-13 04:28N 38°53' W 076°24'0 0.0
2017-Sep-13 03:58N 38°53' W 076°24'0 0.0
2017-Sep-13 03:25N 38°53' W 076°24'0 0.0
2017-Sep-13 02:58N 38°53' W 076°24'0 0.0
2017-Sep-13 02:28N 38°53' W 076°24'0 0.0
2017-Sep-13 01:58N 38°53' W 076°24'0 0.0
2017-Sep-13 01:25N 38°53' W 076°24'0 0.1
2017-Sep-13 00:58N 38°53' W 076°24'0 0.3
2017-Sep-13 00:28N 38°53' W 076°24'0 0.3
2017-Sep-12 23:58N 38°53' W 076°24'0 0.1
2017-Sep-12 23:25N 38°53' W 076°24'0 0.0
2017-Sep-12 22:58N 38°53' W 076°24'0 0.0
2017-Sep-12 22:28N 38°53' W 076°24'0 0.0
2017-Sep-12 21:58N 38°53' W 076°24'0 0.0
2017-Sep-12 21:25N 38°53' W 076°24'0 0.0
2017-Sep-12 20:58N 38°53' W 076°24'0 0.0
2017-Sep-12 20:28N 38°53' W 076°24'0 0.0
2017-Sep-12 19:58N 38°53' W 076°24'0 0.0
2017-Sep-12 19:28N 38°53' W 076°24'0 0.0
2017-Sep-12 18:58N 38°53' W 076°24'0 0.0
2017-Sep-12 18:28N 38°53' W 076°24'0 0.1
2017-Sep-12 17:55N 38°53' W 076°24'0 0.1
2017-Sep-12 15:46N 38°53' W 076°24'0 0.0
2017-Sep-12 15:28N 38°53' W 076°24'0 0.0
2017-Sep-12 14:58N 38°53' W 076°24'0 0.0
2017-Sep-12 14:28N 38°53' W 076°24'0 0.0
2017-Sep-12 13:58N 38°53' W 076°24'0 0.3
2017-Sep-12 13:28N 38°53' W 076°25'0 0.4
2017-Sep-12 12:58N 38°53' W 076°25'0 0.1
2017-Sep-12 12:28N 38°53' W 076°24'0 0.0
2017-Sep-12 11:58N 38°53' W 076°24'0 0.0
2017-Sep-12 11:28N 38°53' W 076°24'0 0.0
2017-Sep-12 10:58N 38°53' W 076°24'0 0.0
2017-Sep-12 10:28N 38°53' W 076°24'0 0.0
2017-Sep-12 09:58N 38°53' W 076°24'0 0.0
2017-Sep-12 09:28N 38°53' W 076°24'0 0.0
2017-Sep-12 08:58N 38°53' W 076°24'0 0.0
2017-Sep-12 08:28N 38°53' W 076°24'0 0.0
2017-Sep-12 07:55N 38°53' W 076°24'0 0.0
2017-Sep-12 07:28N 38°53' W 076°24'0 0.1
2017-Sep-12 06:58N 38°53' W 076°24'0 0.1
2017-Sep-12 06:28N 38°53' W 076°24'0 0.3
2017-Sep-12 05:58N 38°53' W 076°24'0 0.2
2017-Sep-12 05:28N 38°53' W 076°24'0 0.1
2017-Sep-12 04:58N 38°53' W 076°24'0 0.0
2017-Sep-12 04:28N 38°53' W 076°24'0 0.0
2017-Sep-12 03:55N 38°53' W 076°24'0 0.0
2017-Sep-12 03:28N 38°53' W 076°24'0 0.0
2017-Sep-12 02:58N 38°53' W 076°24'0 0.0
2017-Sep-12 02:28N 38°53' W 076°24'0 0.0
2017-Sep-12 01:58N 38°53' W 076°24'0 0.0
2017-Sep-12 01:28N 38°53' W 076°24'0 0.1
2017-Sep-12 00:34N 38°53' W 076°24'0 0.4
2017-Sep-12 00:16N 38°53' W 076°24'0 0.4
2017-Sep-11 23:58N 38°53' W 076°24'0 0.2
2017-Sep-11 23:28N 38°53' W 076°24'0 0.0
2017-Sep-11 22:58N 38°53' W 076°24'0 0.0
2017-Sep-11 22:28N 38°53' W 076°24'0 0.0
2017-Sep-11 21:58N 38°53' W 076°24'0 0.0
2017-Sep-11 21:28N 38°53' W 076°24'0 0.0
2017-Sep-11 20:58N 38°53' W 076°24'0 0.0
2017-Sep-11 20:28N 38°53' W 076°24'0 0.0
2017-Sep-11 19:58N 38°53' W 076°24'0 0.0
2017-Sep-11 19:28N 38°53' W 076°24'0 0.0
2017-Sep-11 18:58N 38°53' W 076°24'0 0.0
2017-Sep-11 18:28N 38°53' W 076°24'0 0.0
2017-Sep-11 17:58N 38°53' W 076°24'0 0.0
2017-Sep-11 17:28N 38°53' W 076°24'0 0.0
2017-Sep-11 16:55N 38°53' W 076°24'0 0.1
2017-Sep-11 16:19N 38°53' W 076°24'0 0.3
2017-Sep-11 15:58N 38°53' W 076°24'0 0.1
2017-Sep-11 14:37N 38°53' W 076°24'0 0.0
2017-Sep-11 14:16N 38°53' W 076°24'0 0.1
2017-Sep-11 13:58N 38°53' W 076°24'0 0.0
2017-Sep-11 13:22N 38°53' W 076°24'0 0.0
2017-Sep-11 12:58N 38°53' W 076°24'0 0.0
2017-Sep-11 12:25N 38°53' W 076°24'0 0.1
2017-Sep-11 11:58N 38°53' W 076°24'0 0.2
2017-Sep-11 11:28N 38°53' W 076°25'0 0.4
2017-Sep-11 10:58N 38°53' W 076°25'0 0.1
2017-Sep-11 10:28N 38°53' W 076°25'0 0.0
2017-Sep-11 09:58N 38°53' W 076°24'0 0.0
2017-Sep-11 09:28N 38°53' W 076°24'0 0.0
2017-Sep-11 08:58N 38°53' W 076°24'0 0.0
2017-Sep-11 08:28N 38°53' W 076°24'0 0.0
2017-Sep-11 07:58N 38°53' W 076°24'0 0.0
2017-Sep-11 07:25N 38°53' W 076°24'0 0.0
2017-Sep-11 06:55N 38°53' W 076°25'0 0.0
2017-Sep-11 06:28N 38°53' W 076°25'0 0.0
2017-Sep-11 05:58N 38°53' W 076°25'0 0.0
2017-Sep-11 05:28N 38°53' W 076°25'0 0.0
2017-Sep-11 04:58N 38°53' W 076°24'0 0.2
2017-Sep-11 04:28N 38°53' W 076°24'0 0.4
2017-Sep-11 03:58N 38°53' W 076°24'0 0.2
2017-Sep-11 03:22N 38°53' W 076°24'0 0.0
2017-Sep-11 02:58N 38°53' W 076°24'0 0.0
2017-Sep-11 02:16N 38°53' W 076°24'0 0.0
2017-Sep-11 01:52N 38°53' W 076°24'0 0.0
2017-Sep-11 01:28N 38°53' W 076°24'0 0.0
2017-Sep-11 00:55N 38°53' W 076°24'0 0.1
2017-Sep-11 00:28N 38°53' W 076°24'0 0.1
2017-Sep-10 22:58N 38°53' W 076°24'0 0.2
2017-Sep-10 22:28N 38°53' W 076°24'0 0.1
2017-Sep-10 21:58N 38°53' W 076°24'0 0.1
2017-Sep-10 21:28N 38°53' W 076°24'0 0.0
2017-Sep-10 20:58N 38°53' W 076°24'0 0.0
2017-Sep-10 20:28N 38°53' W 076°24'0 0.0
2017-Sep-10 19:58N 38°53' W 076°24'0 0.0
2017-Sep-10 19:28N 38°53' W 076°24'0 0.0
2017-Sep-10 18:58N 38°53' W 076°24'0 0.0
2017-Sep-10 18:25N 38°53' W 076°24'0 0.0
2017-Sep-10 17:55N 38°53' W 076°24'0 0.0
2017-Sep-10 17:28N 38°53' W 076°24'0 0.0
2017-Sep-10 16:58N 38°53' W 076°24'0 0.0
2017-Sep-10 16:25N 38°53' W 076°24'0 0.0
2017-Sep-10 15:58N 38°53' W 076°24'0 0.0
2017-Sep-10 15:28N 38°53' W 076°24'0 0.0
2017-Sep-10 14:40N 38°53' W 076°24'0 0.0
2017-Sep-10 13:55N 38°53' W 076°24'0 0.1
2017-Sep-10 13:25N 38°53' W 076°24'0 0.1
2017-Sep-10 12:58N 38°53' W 076°24'0 0.0
2017-Sep-10 12:28N 38°53' W 076°24'0 0.0
2017-Sep-10 11:58N 38°53' W 076°24'0 0.1
2017-Sep-10 11:28N 38°53' W 076°24'0 0.1
2017-Sep-10 10:58N 38°53' W 076°24'0 0.0
2017-Sep-10 10:28N 38°53' W 076°24'0 0.0
2017-Sep-10 09:58N 38°53' W 076°24'0 0.0
2017-Sep-10 09:28N 38°53' W 076°24'0 0.0
2017-Sep-10 08:52N 38°53' W 076°24'0 0.0
2017-Sep-10 08:28N 38°53' W 076°24'0 0.0
2017-Sep-10 07:58N 38°53' W 076°24'0 0.0
2017-Sep-10 07:28N 38°53' W 076°24'0 0.0
2017-Sep-10 06:58N 38°53' W 076°24'0 0.0
2017-Sep-10 06:28N 38°53' W 076°24'0 0.0
2017-Sep-10 05:58N 38°53' W 076°24'0 0.0
2017-Sep-10 05:28N 38°53' W 076°24'0 0.1
2017-Sep-10 04:58N 38°53' W 076°24'0 0.0
2017-Sep-10 04:28N 38°53' W 076°24'0 0.0
2017-Sep-10 03:58N 38°53' W 076°24'0 0.0
2017-Sep-10 03:28N 38°53' W 076°24'0 0.0
2017-Sep-10 02:58N 38°53' W 076°24'0 0.0
2017-Sep-10 02:28N 38°53' W 076°24'0 0.0
2017-Sep-10 01:58N 38°53' W 076°24'0 0.2
2017-Sep-10 01:28N 38°53' W 076°24'0 0.0
2017-Sep-10 00:58N 38°53' W 076°24'0 0.0
2017-Sep-10 00:28N 38°53' W 076°24'0 0.0
2017-Sep-09 23:52N 38°53' W 076°24'0 0.0
2017-Sep-09 23:28N 38°53' W 076°24'0 0.1
2017-Sep-09 22:58N 38°53' W 076°24'0 0.0
2017-Sep-09 22:16N 38°53' W 076°24'0 0.0
2017-Sep-09 21:55N 38°53' W 076°24'0 0.1
2017-Sep-09 21:28N 38°53' W 076°24'0 0.0
2017-Sep-09 20:58N 38°53' W 076°24'0 0.0
2017-Sep-09 20:28N 38°53' W 076°24'0 0.0
2017-Sep-09 19:58N 38°53' W 076°24'0 0.0
2017-Sep-09 19:28N 38°53' W 076°24'0 0.0
2017-Sep-09 18:58N 38°53' W 076°24'0 0.0
2017-Sep-09 18:28N 38°53' W 076°24'0 0.0
2017-Sep-09 17:58N 38°53' W 076°24'0 0.0
2017-Sep-09 17:28N 38°53' W 076°24'0 0.0
2017-Sep-09 16:58N 38°53' W 076°24'0 0.0
2017-Sep-09 16:28N 38°53' W 076°24'0 0.0
2017-Sep-09 15:58N 38°53' W 076°24'0 0.0
2017-Sep-09 15:28N 38°53' W 076°24'0 0.0
2017-Sep-09 14:58N 38°53' W 076°24'0 0.1
2017-Sep-09 14:28N 38°53' W 076°24'0 0.1
2017-Sep-09 13:58N 38°53' W 076°25'1 2.9
2017-Sep-09 13:30N 38°52' W 076°24'5 9.6
2017-Sep-09 13:00N 38°47' W 076°25'812.6
2017-Sep-09 12:21N 38°39' W 076°25'1112.1
2017-Sep-09 11:27N 38°28' W 076°23'912.8
2017-Sep-09 10:47N 38°20' W 076°19'1512.6
2017-Sep-09 09:33N 38°05' W 076°13'112.6
2017-Sep-09 09:28N 38°04' W 076°13'5812.3
2017-Sep-09 04:48N 37°07' W 076°07'414.6
2017-Sep-09 04:30N 37°03' W 076°05'714.1
2017-Sep-09 04:00N 36°58' W 075°59'510.4
2017-Sep-09 03:30N 36°54' W 075°54'4 8.3
2017-Sep-09 03:00N 36°52' W 075°50'  
Track history (hours):
 
Tides and Currents Weather Stations Pressure Air Temp Water Temp Dewpoint Dewpoint Depression Visibility Wind Speed Wind Dir Waves Ship Positions

Madeira

Last reported at 2017-Sep-18 20:27 UTC. Time now 2017-Sep-19 18:37 UTC.
Position N 36°58' W 076°25'.

Length 292 m; draft 10.4 m.

Type: Cargo ship. MMSI: 256668000.

Date/timePositionNaut miles runAvg speedWind from/ knotsBaromVisibWave heightAir tempDewpointWater temp
2017-Sep-18 20:27N 36°58' W 076°25'3 5.0
2017-Sep-18 19:55N 36°57' W 076°22'4 9.4
2017-Sep-18 19:29N 36°60' W 076°18'611.7
2017-Sep-18 18:58N 36°59' W 076°11'511.7
2017-Sep-18 18:31N 36°58' W 076°04'3 6.1
2017-Sep-18 18:00N 36°60' W 076°01'68 3.0
2017-Sep-17 19:00N 38°07' W 076°14'4113.1
2017-Sep-17 15:52N 38°47' W 076°25'513.9
2017-Sep-17 15:30N 38°52' W 076°24'914.1
2017-Sep-17 14:52N 39°01' W 076°23'513.4
2017-Sep-17 14:29N 39°06' W 076°24'612.0
2017-Sep-17 14:00N 39°11' W 076°28'510.4
2017-Sep-17 13:30N 39°14' W 076°33'1 2.7
2017-Sep-17 12:58N 39°15' W 076°34'0 0.0
2017-Sep-17 12:28N 39°15' W 076°34'0 0.0
2017-Sep-17 11:58N 39°15' W 076°34'0 0.0
2017-Sep-17 11:28N 39°15' W 076°34'0 0.0
2017-Sep-17 10:59N 39°15' W 076°34'0 0.0
2017-Sep-17 10:28N 39°15' W 076°34'0 0.0
2017-Sep-17 09:58N 39°15' W 076°34'0 0.0
2017-Sep-17 09:28N 39°15' W 076°34'0 0.0
2017-Sep-17 08:58N 39°15' W 076°34'0 0.0
2017-Sep-17 08:28N 39°15' W 076°34'0 0.0
2017-Sep-17 07:58N 39°15' W 076°34'0 0.0
2017-Sep-17 07:28N 39°15' W 076°34'0 0.0
2017-Sep-17 06:58N 39°15' W 076°34'0 0.0
2017-Sep-17 06:28N 39°15' W 076°34'0 0.0
2017-Sep-17 05:58N 39°15' W 076°34'0 0.0
2017-Sep-17 05:28N 39°15' W 076°34'0 0.0
2017-Sep-17 04:58N 39°15' W 076°34'0 0.0
2017-Sep-17 04:28N 39°15' W 076°34'0 0.0
2017-Sep-17 03:58N 39°15' W 076°34'0 0.0
2017-Sep-17 03:28N 39°15' W 076°34'0 0.0
2017-Sep-17 02:58N 39°15' W 076°34'0 0.0
2017-Sep-17 02:28N 39°15' W 076°34'0 0.0
2017-Sep-17 01:58N 39°15' W 076°34'0 0.0
2017-Sep-17 01:28N 39°15' W 076°34'0 0.0
2017-Sep-17 00:58N 39°15' W 076°34'0 0.0
2017-Sep-17 00:28N 39°15' W 076°34'0 0.0
2017-Sep-16 23:58N 39°15' W 076°34'0 0.0
2017-Sep-16 23:28N 39°15' W 076°34'0 0.0
2017-Sep-16 22:58N 39°15' W 076°34'0 0.0
2017-Sep-16 22:28N 39°15' W 076°34'0 0.0
2017-Sep-16 21:58N 39°15' W 076°34'0 0.0
2017-Sep-16 21:28N 39°15' W 076°34'0 0.0
2017-Sep-16 20:58N 39°15' W 076°34'0 0.0
2017-Sep-16 20:28N 39°15' W 076°34'0 0.0
2017-Sep-16 19:58N 39°15' W 076°34'0 0.0
2017-Sep-16 19:28N 39°15' W 076°34'0 0.0
2017-Sep-16 18:58N 39°15' W 076°34'0 0.0
2017-Sep-16 18:28N 39°15' W 076°34'0 0.0
2017-Sep-16 17:58N 39°15' W 076°34'0 0.0
2017-Sep-16 17:28N 39°15' W 076°34'0 0.0
2017-Sep-16 16:58N 39°15' W 076°34'0 0.0
2017-Sep-16 16:28N 39°15' W 076°34'0 0.0
2017-Sep-16 15:58N 39°15' W 076°34'0 0.0
2017-Sep-16 15:28N 39°15' W 076°34'0 0.0
2017-Sep-16 14:58N 39°15' W 076°34'0 0.0
2017-Sep-16 14:28N 39°15' W 076°34'0 0.0
2017-Sep-16 13:58N 39°15' W 076°34'0 0.6
2017-Sep-16 13:31N 39°15' W 076°34'3 5.5
2017-Sep-16 13:01N 39°13' W 076°32'5 9.2
2017-Sep-16 12:30N 39°11' W 076°26'611.3
2017-Sep-16 12:01N 39°06' W 076°24'4 8.8
2017-Sep-16 11:30N 39°01' W 076°23'4 9.0
2017-Sep-16 11:00N 38°57' W 076°24'4 7.5
2017-Sep-16 10:31N 38°53' W 076°24'0 0.2
2017-Sep-16 09:58N 38°53' W 076°24'0 0.3
2017-Sep-16 09:28N 38°53' W 076°24'0 0.1
2017-Sep-16 08:55N 38°53' W 076°24'0 0.0
2017-Sep-16 08:28N 38°53' W 076°24'0 0.0
2017-Sep-16 07:58N 38°53' W 076°24'0 0.0
2017-Sep-16 07:25N 38°53' W 076°24'0 0.0
2017-Sep-16 06:58N 38°53' W 076°24'0 0.0
2017-Sep-16 06:22N 38°53' W 076°24'0 0.0
2017-Sep-16 05:58N 38°53' W 076°24'0 0.0
2017-Sep-16 05:28N 38°53' W 076°24'0 0.0
2017-Sep-16 04:46N 38°53' W 076°24'0 0.1
2017-Sep-16 04:28N 38°53' W 076°24'0 0.4
2017-Sep-16 03:55N 38°53' W 076°24'0 0.2
2017-Sep-16 03:28N 38°53' W 076°24'0 0.1
2017-Sep-16 02:58N 38°53' W 076°24'0 0.0
2017-Sep-16 02:28N 38°53' W 076°24'0 0.0
2017-Sep-16 01:58N 38°53' W 076°24'0 0.0
2017-Sep-16 01:28N 38°53' W 076°24'0 0.0
2017-Sep-16 00:58N 38°53' W 076°24'0 0.0
2017-Sep-16 00:28N 38°53' W 076°24'0 0.0
2017-Sep-15 23:58N 38°53' W 076°24'0 0.0
2017-Sep-15 23:28N 38°53' W 076°24'0 0.0
2017-Sep-15 22:58N 38°53' W 076°24'0 0.0
2017-Sep-15 22:28N 38°53' W 076°24'0 0.1
2017-Sep-15 21:58N 38°53' W 076°25'0 0.4
2017-Sep-15 21:28N 38°53' W 076°25'0 0.2
2017-Sep-15 20:55N 38°53' W 076°24'0 0.0
2017-Sep-15 20:25N 38°53' W 076°24'0 0.0
2017-Sep-15 19:55N 38°53' W 076°24'0 0.0
2017-Sep-15 19:07N 38°53' W 076°24'0 0.1
2017-Sep-15 16:58N 38°53' W 076°24'0 0.3
2017-Sep-15 16:28N 38°53' W 076°24'0 0.1
2017-Sep-15 15:58N 38°53' W 076°24'0 0.1
2017-Sep-15 15:25N 38°53' W 076°24'0 0.0
2017-Sep-15 14:58N 38°53' W 076°25'0 0.0
2017-Sep-15 14:25N 38°53' W 076°25'0 0.0
2017-Sep-15 13:58N 38°53' W 076°25'0 0.0
2017-Sep-15 13:28N 38°53' W 076°25'0 0.0
2017-Sep-15 12:58N 38°53' W 076°25'0 0.0
2017-Sep-15 12:28N 38°53' W 076°24'0 0.0
2017-Sep-15 11:58N 38°53' W 076°25'0 0.0
2017-Sep-15 11:28N 38°53' W 076°24'0 0.0
2017-Sep-15 10:58N 38°53' W 076°24'0 0.0
2017-Sep-15 10:28N 38°53' W 076°24'0 0.0
2017-Sep-15 09:58N 38°53' W 076°24'0 0.1
2017-Sep-15 09:28N 38°53' W 076°24'0 0.2
2017-Sep-15 08:58N 38°53' W 076°24'0 0.3
2017-Sep-15 08:28N 38°53' W 076°24'0 0.1
2017-Sep-15 07:58N 38°53' W 076°24'0 0.1
2017-Sep-15 07:28N 38°53' W 076°24'0 0.0
2017-Sep-15 06:58N 38°53' W 076°24'0 0.0
2017-Sep-15 06:28N 38°53' W 076°24'0 0.0
2017-Sep-15 05:58N 38°53' W 076°24'0 0.0
2017-Sep-15 05:28N 38°53' W 076°24'0 0.0
2017-Sep-15 04:55N 38°53' W 076°24'0 0.0
2017-Sep-15 04:28N 38°53' W 076°24'0 0.0
2017-Sep-15 03:58N 38°53' W 076°24'0 0.0
2017-Sep-15 03:25N 38°53' W 076°24'0 0.1
2017-Sep-15 02:31N 38°53' W 076°24'0 0.4
2017-Sep-15 02:28N 38°53' W 076°24'0 0.3
2017-Sep-15 01:58N 38°53' W 076°24'0 0.1
2017-Sep-15 01:28N 38°53' W 076°24'0 0.0
2017-Sep-15 00:58N 38°53' W 076°24'0 0.0
2017-Sep-15 00:25N 38°53' W 076°24'0 0.0
2017-Sep-14 23:58N 38°53' W 076°24'0 0.1
2017-Sep-14 23:25N 38°53' W 076°24'0 0.0
2017-Sep-14 22:58N 38°53' W 076°24'0 0.0
2017-Sep-14 22:28N 38°53' W 076°24'0 0.1
2017-Sep-14 21:58N 38°53' W 076°24'0 0.0
2017-Sep-14 21:28N 38°53' W 076°25'0 0.1
2017-Sep-14 20:52N 38°53' W 076°25'0 0.2
2017-Sep-14 20:28N 38°53' W 076°25'0 0.1
2017-Sep-14 19:58N 38°53' W 076°25'0 0.1
2017-Sep-14 19:28N 38°53' W 076°25'0 0.1
2017-Sep-14 18:46N 38°53' W 076°24'0 0.1
2017-Sep-14 18:28N 38°53' W 076°24'0 0.0
2017-Sep-14 16:34N 38°53' W 076°24'0 0.1
2017-Sep-14 16:28N 38°53' W 076°24'0 0.0
2017-Sep-14 14:22N 38°53' W 076°24'0 0.1
2017-Sep-14 13:55N 38°53' W 076°24'0 0.2
2017-Sep-14 13:28N 38°53' W 076°24'0 0.2
2017-Sep-14 12:58N 38°53' W 076°24'0 0.1
2017-Sep-14 12:25N 38°53' W 076°24'0 0.1
2017-Sep-14 11:58N 38°53' W 076°24'0 0.0
2017-Sep-14 11:28N 38°53' W 076°24'0 0.0
2017-Sep-14 10:52N 38°53' W 076°24'0 0.1
2017-Sep-14 10:19N 38°53' W 076°24'0 0.2
2017-Sep-14 09:58N 38°53' W 076°24'0 0.1
2017-Sep-14 09:28N 38°53' W 076°24'0 0.2
2017-Sep-14 08:58N 38°53' W 076°24'0 0.2
2017-Sep-14 08:16N 38°53' W 076°24'0 0.1
2017-Sep-14 07:58N 38°53' W 076°24'0 0.0
2017-Sep-14 07:28N 38°53' W 076°24'0 0.0
2017-Sep-14 06:55N 38°53' W 076°24'0 0.0
2017-Sep-14 06:28N 38°53' W 076°24'0 0.0
2017-Sep-14 05:58N 38°53' W 076°24'0 0.0
2017-Sep-14 05:28N 38°53' W 076°24'0 0.0
2017-Sep-14 04:55N 38°53' W 076°24'0 0.0
2017-Sep-14 04:28N 38°53' W 076°24'0 0.0
2017-Sep-14 03:58N 38°53' W 076°24'0 0.0
2017-Sep-14 03:25N 38°53' W 076°24'0 0.0
2017-Sep-14 02:58N 38°53' W 076°24'0 0.0
2017-Sep-14 02:28N 38°53' W 076°24'0 0.1
2017-Sep-14 01:58N 38°53' W 076°24'0 0.2
2017-Sep-14 01:28N 38°53' W 076°25'0 0.4
2017-Sep-14 00:58N 38°53' W 076°25'0 0.1
2017-Sep-14 00:28N 38°53' W 076°24'0 0.0
2017-Sep-13 23:58N 38°53' W 076°24'0 0.0
2017-Sep-13 23:28N 38°53' W 076°24'0 0.0
2017-Sep-13 22:58N 38°53' W 076°24'0 0.0
2017-Sep-13 22:25N 38°53' W 076°24'0 0.0
2017-Sep-13 21:58N 38°53' W 076°24'0 0.0
2017-Sep-13 21:28N 38°53' W 076°24'0 0.0
2017-Sep-13 20:55N 38°53' W 076°24'0 0.0
2017-Sep-13 20:28N 38°53' W 076°24'0 0.0
2017-Sep-13 19:43N 38°53' W 076°25'0 0.2
2017-Sep-13 19:13N 38°53' W 076°25'0 0.2
2017-Sep-13 18:10N 38°53' W 076°24'0 0.1
2017-Sep-13 17:58N 38°53' W 076°24'0 0.0
2017-Sep-13 16:37N 38°53' W 076°24'0 0.0
2017-Sep-13 16:16N 38°53' W 076°24'0 0.0
2017-Sep-13 14:28N 38°53' W 076°24'0 0.0
2017-Sep-13 13:58N 38°53' W 076°24'0 0.1
2017-Sep-13 13:13N 38°53' W 076°24'0 0.2
2017-Sep-13 12:58N 38°53' W 076°25'0 0.3
2017-Sep-13 12:28N 38°53' W 076°25'0 0.2
2017-Sep-13 11:58N 38°53' W 076°25'0 0.1
2017-Sep-13 11:28N 38°53' W 076°24'0 0.0
2017-Sep-13 10:55N 38°53' W 076°24'0 0.0
2017-Sep-13 10:28N 38°53' W 076°24'0 0.0
2017-Sep-13 09:58N 38°53' W 076°24'0 0.0
2017-Sep-13 09:28N 38°53' W 076°24'0 0.0
2017-Sep-13 08:58N 38°53' W 076°24'0 0.1
2017-Sep-13 08:28N 38°53' W 076°25'0 0.0
2017-Sep-13 07:58N 38°53' W 076°25'0 0.0
2017-Sep-13 07:28N 38°53' W 076°25'0 0.2
2017-Sep-13 06:58N 38°53' W 076°25'0 0.3
2017-Sep-13 06:28N 38°53' W 076°25'0 0.1
2017-Sep-13 05:58N 38°53' W 076°24'0 0.0
2017-Sep-13 05:28N 38°53' W 076°24'0 0.0
2017-Sep-13 04:58N 38°53' W 076°24'0 0.0
2017-Sep-13 04:28N 38°53' W 076°24'0 0.0
2017-Sep-13 03:58N 38°53' W 076°24'0 0.0
2017-Sep-13 03:25N 38°53' W 076°24'0 0.0
2017-Sep-13 02:58N 38°53' W 076°24'0 0.0
2017-Sep-13 02:28N 38°53' W 076°24'0 0.0
2017-Sep-13 01:58N 38°53' W 076°24'0 0.0
2017-Sep-13 01:25N 38°53' W 076°24'0 0.1
2017-Sep-13 00:58N 38°53' W 076°24'0 0.3
2017-Sep-13 00:28N 38°53' W 076°24'0 0.3
2017-Sep-12 23:58N 38°53' W 076°24'0 0.1
2017-Sep-12 23:25N 38°53' W 076°24'0 0.0
2017-Sep-12 22:58N 38°53' W 076°24'0 0.0
2017-Sep-12 22:28N 38°53' W 076°24'0 0.0
2017-Sep-12 21:58N 38°53' W 076°24'0 0.0
2017-Sep-12 21:25N 38°53' W 076°24'0 0.0
2017-Sep-12 20:58N 38°53' W 076°24'0 0.0
2017-Sep-12 20:28N 38°53' W 076°24'0 0.0
2017-Sep-12 19:58N 38°53' W 076°24'0 0.0
2017-Sep-12 19:28N 38°53' W 076°24'0 0.0
2017-Sep-12 18:58N 38°53' W 076°24'0 0.0
2017-Sep-12 18:28N 38°53' W 076°24'0 0.1
2017-Sep-12 17:55N 38°53' W 076°24'0 0.1
2017-Sep-12 15:46N 38°53' W 076°24'0 0.0
2017-Sep-12 15:28N 38°53' W 076°24'0 0.0
2017-Sep-12 14:58N 38°53' W 076°24'0 0.0
2017-Sep-12 14:28N 38°53' W 076°24'0 0.0
2017-Sep-12 13:58N 38°53' W 076°24'0 0.3
2017-Sep-12 13:28N 38°53' W 076°25'0 0.4
2017-Sep-12 12:58N 38°53' W 076°25'0 0.1
2017-Sep-12 12:28N 38°53' W 076°24'0 0.0
2017-Sep-12 11:58N 38°53' W 076°24'0 0.0
2017-Sep-12 11:28N 38°53' W 076°24'0 0.0
2017-Sep-12 10:58N 38°53' W 076°24'0 0.0
2017-Sep-12 10:28N 38°53' W 076°24'0 0.0
2017-Sep-12 09:58N 38°53' W 076°24'0 0.0
2017-Sep-12 09:28N 38°53' W 076°24'0 0.0
2017-Sep-12 08:58N 38°53' W 076°24'0 0.0
2017-Sep-12 08:28N 38°53' W 076°24'0 0.0
2017-Sep-12 07:55N 38°53' W 076°24'0 0.0
2017-Sep-12 07:28N 38°53' W 076°24'0 0.1
2017-Sep-12 06:58N 38°53' W 076°24'0 0.1
2017-Sep-12 06:28N 38°53' W 076°24'0 0.3
2017-Sep-12 05:58N 38°53' W 076°24'0 0.2
2017-Sep-12 05:28N 38°53' W 076°24'0 0.1
2017-Sep-12 04:58N 38°53' W 076°24'0 0.0
2017-Sep-12 04:28N 38°53' W 076°24'0 0.0
2017-Sep-12 03:55N 38°53' W 076°24'0 0.0
2017-Sep-12 03:28N 38°53' W 076°24'0 0.0
2017-Sep-12 02:58N 38°53' W 076°24'0 0.0
2017-Sep-12 02:28N 38°53' W 076°24'0 0.0
2017-Sep-12 01:58N 38°53' W 076°24'0 0.0
2017-Sep-12 01:28N 38°53' W 076°24'0 0.1
2017-Sep-12 00:34N 38°53' W 076°24'0 0.4
2017-Sep-12 00:16N 38°53' W 076°24'0 0.4
2017-Sep-11 23:58N 38°53' W 076°24'0 0.2
2017-Sep-11 23:28N 38°53' W 076°24'0 0.0
2017-Sep-11 22:58N 38°53' W 076°24'0 0.0
2017-Sep-11 22:28N 38°53' W 076°24'0 0.0
2017-Sep-11 21:58N 38°53' W 076°24'0 0.0
2017-Sep-11 21:28N 38°53' W 076°24'0 0.0
2017-Sep-11 20:58N 38°53' W 076°24'0 0.0
2017-Sep-11 20:28N 38°53' W 076°24'0 0.0
2017-Sep-11 19:58N 38°53' W 076°24'0 0.0
2017-Sep-11 19:28N 38°53' W 076°24'0 0.0
2017-Sep-11 18:58N 38°53' W 076°24'0 0.0
2017-Sep-11 18:28N 38°53' W 076°24'0 0.0
2017-Sep-11 17:58N 38°53' W 076°24'0 0.0
2017-Sep-11 17:28N 38°53' W 076°24'0 0.0
2017-Sep-11 16:55N 38°53' W 076°24'0 0.1
2017-Sep-11 16:19N 38°53' W 076°24'0 0.3
2017-Sep-11 15:58N 38°53' W 076°24'0 0.1
2017-Sep-11 14:37N 38°53' W 076°24'0 0.0
2017-Sep-11 14:16N 38°53' W 076°24'0 0.1
2017-Sep-11 13:58N 38°53' W 076°24'0 0.0
2017-Sep-11 13:22N 38°53' W 076°24'0 0.0
2017-Sep-11 12:58N 38°53' W 076°24'0 0.0
2017-Sep-11 12:25N 38°53' W 076°24'0 0.1
2017-Sep-11 11:58N 38°53' W 076°24'0 0.2
2017-Sep-11 11:28N 38°53' W 076°25'0 0.4
2017-Sep-11 10:58N 38°53' W 076°25'0 0.1
2017-Sep-11 10:28N 38°53' W 076°25'0 0.0
2017-Sep-11 09:58N 38°53' W 076°24'0 0.0
2017-Sep-11 09:28N 38°53' W 076°24'0 0.0
2017-Sep-11 08:58N 38°53' W 076°24'0 0.0
2017-Sep-11 08:28N 38°53' W 076°24'0 0.0
2017-Sep-11 07:58N 38°53' W 076°24'0 0.0
2017-Sep-11 07:25N 38°53' W 076°24'0 0.0
2017-Sep-11 06:55N 38°53' W 076°25'0 0.0
2017-Sep-11 06:28N 38°53' W 076°25'0 0.0
2017-Sep-11 05:58N 38°53' W 076°25'0 0.0
2017-Sep-11 05:28N 38°53' W 076°25'0 0.0
2017-Sep-11 04:58N 38°53' W 076°24'0 0.2
2017-Sep-11 04:28N 38°53' W 076°24'0 0.4
2017-Sep-11 03:58N 38°53' W 076°24'0 0.2
2017-Sep-11 03:22N 38°53' W 076°24'0 0.0
2017-Sep-11 02:58N 38°53' W 076°24'0 0.0
2017-Sep-11 02:16N 38°53' W 076°24'0 0.0
2017-Sep-11 01:52N 38°53' W 076°24'0 0.0
2017-Sep-11 01:28N 38°53' W 076°24'0 0.0
2017-Sep-11 00:55N 38°53' W 076°24'0 0.1
2017-Sep-11 00:28N 38°53' W 076°24'0 0.1
2017-Sep-10 22:58N 38°53' W 076°24'0 0.2
2017-Sep-10 22:28N 38°53' W 076°24'0 0.1
2017-Sep-10 21:58N 38°53' W 076°24'0 0.1
2017-Sep-10 21:28N 38°53' W 076°24'0 0.0
2017-Sep-10 20:58N 38°53' W 076°24'0 0.0
2017-Sep-10 20:28N 38°53' W 076°24'0 0.0
2017-Sep-10 19:58N 38°53' W 076°24'0 0.0
2017-Sep-10 19:28N 38°53' W 076°24'0 0.0
2017-Sep-10 18:58N 38°53' W 076°24'0 0.0
2017-Sep-10 18:25N 38°53' W 076°24'0 0.0
2017-Sep-10 17:55N 38°53' W 076°24'0 0.0
2017-Sep-10 17:28N 38°53' W 076°24'0 0.0
2017-Sep-10 16:58N 38°53' W 076°24'0 0.0
2017-Sep-10 16:25N 38°53' W 076°24'0 0.0
2017-Sep-10 15:58N 38°53' W 076°24'0 0.0
2017-Sep-10 15:28N 38°53' W 076°24'0 0.0
2017-Sep-10 14:40N 38°53' W 076°24'0 0.0
2017-Sep-10 13:55N 38°53' W 076°24'0 0.1
2017-Sep-10 13:25N 38°53' W 076°24'0 0.1
2017-Sep-10 12:58N 38°53' W 076°24'0 0.0
2017-Sep-10 12:28N 38°53' W 076°24'0 0.0
2017-Sep-10 11:58N 38°53' W 076°24'0 0.1
2017-Sep-10 11:28N 38°53' W 076°24'0 0.1
2017-Sep-10 10:58N 38°53' W 076°24'0 0.0
2017-Sep-10 10:28N 38°53' W 076°24'0 0.0
2017-Sep-10 09:58N 38°53' W 076°24'0 0.0
2017-Sep-10 09:28N 38°53' W 076°24'0 0.0
2017-Sep-10 08:52N 38°53' W 076°24'0 0.0
2017-Sep-10 08:28N 38°53' W 076°24'0 0.0
2017-Sep-10 07:58N 38°53' W 076°24'0 0.0
2017-Sep-10 07:28N 38°53' W 076°24'0 0.0
2017-Sep-10 06:58N 38°53' W 076°24'0 0.0
2017-Sep-10 06:28N 38°53' W 076°24'0 0.0
2017-Sep-10 05:58N 38°53' W 076°24'0 0.0
2017-Sep-10 05:28N 38°53' W 076°24'0 0.1
2017-Sep-10 04:58N 38°53' W 076°24'0 0.0
2017-Sep-10 04:28N 38°53' W 076°24'0 0.0
2017-Sep-10 03:58N 38°53' W 076°24'0 0.0
2017-Sep-10 03:28N 38°53' W 076°24'0 0.0
2017-Sep-10 02:58N 38°53' W 076°24'0 0.0
2017-Sep-10 02:28N 38°53' W 076°24'0 0.0
2017-Sep-10 01:58N 38°53' W 076°24'0 0.2
2017-Sep-10 01:28N 38°53' W 076°24'0 0.0
2017-Sep-10 00:58N 38°53' W 076°24'0 0.0
2017-Sep-10 00:28N 38°53' W 076°24'0 0.0
2017-Sep-09 23:52N 38°53' W 076°24'0 0.0
2017-Sep-09 23:28N 38°53' W 076°24'0 0.1
2017-Sep-09 22:58N 38°53' W 076°24'0 0.0
2017-Sep-09 22:16N 38°53' W 076°24'0 0.0
2017-Sep-09 21:55N 38°53' W 076°24'0 0.1
2017-Sep-09 21:28N 38°53' W 076°24'0 0.0
2017-Sep-09 20:58N 38°53' W 076°24'0 0.0
2017-Sep-09 20:28N 38°53' W 076°24'0 0.0
2017-Sep-09 19:58N 38°53' W 076°24'0 0.0
2017-Sep-09 19:28N 38°53' W 076°24'0 0.0
2017-Sep-09 18:58N 38°53' W 076°24'0 0.0
2017-Sep-09 18:28N 38°53' W 076°24'0 0.0
2017-Sep-09 17:58N 38°53' W 076°24'0 0.0
2017-Sep-09 17:28N 38°53' W 076°24'0 0.0
2017-Sep-09 16:58N 38°53' W 076°24'0 0.0
2017-Sep-09 16:28N 38°53' W 076°24'0 0.0
2017-Sep-09 15:58N 38°53' W 076°24'0 0.0
2017-Sep-09 15:28N 38°53' W 076°24'0 0.0
2017-Sep-09 14:58N 38°53' W 076°24'0 0.1
2017-Sep-09 14:28N 38°53' W 076°24'0 0.1
2017-Sep-09 13:58N 38°53' W 076°25'1 2.9
2017-Sep-09 13:30N 38°52' W 076°24'5 9.6
2017-Sep-09 13:00N 38°47' W 076°25'812.6
2017-Sep-09 12:21N 38°39' W 076°25'1112.1
2017-Sep-09 11:27N 38°28' W 076°23'912.8
2017-Sep-09 10:47N 38°20' W 076°19'1512.6
2017-Sep-09 09:33N 38°05' W 076°13'112.6
2017-Sep-09 09:28N 38°04' W 076°13'5812.3
2017-Sep-09 04:48N 37°07' W 076°07'414.6
2017-Sep-09 04:30N 37°03' W 076°05'714.1
2017-Sep-09 04:00N 36°58' W 075°59'510.4
2017-Sep-09 03:30N 36°54' W 075°54'4 8.3
2017-Sep-09 03:00N 36°52' W 075°50'  

Dump ship's entire track history